Date,TemperatureHighF,TemperatureAvgF,TemperatureLowF,DewpointHighF,DewpointAvgF,DewpointLowF,HumidityHigh,HumidityAvg,HumidityLow,PressureMaxIn,PressureMinIn,WindSpeedMaxMPH,WindSpeedAvgMPH,GustSpeedMaxMPH,PrecipitationSumIn
2013-3-1,49,44,36,46,42,36,100,95,87,30.29,30.17,16,3,16,0.01
2013-3-2,52,43,34,44,40,34,99,89,72,30.18,29.79,14,2,14,0.00
2013-3-3,43,35,27,36,24,20,88,67,41,30.10,29.79,18,2,18,0.00
2013-3-4,43,31,23,28,24,21,93,75,43,30.22,30.01,8,1,8,0.00
2013-3-5,39,33,28,30,26,21,88,74,58,30.02,29.74,10,2,10,0.00
2013-3-6,47,37,32,40,33,29,97,88,76,29.75,29.48,15,2,15,0.18
2013-3-7,44,35,28,38,32,28,98,91,64,29.98,29.75,11,1,11,0.39
2013-3-8,43,32,26,38,30,26,98,94,78,30.08,29.96,9,1,9,0.01
2013-3-9,51,36,24,36,29,23,98,80,47,30.34,30.08,11,1,11,0.01
2013-3-10,42,34,25,36,30,24,97,87,69,30.33,30.19,4,1,12,0.00
2013-3-11,48,36,28,31,28,23,98,78,39,30.26,30.15,3,0,10,0.01
2013-3-12,54,44,35,45,40,31,94,84,71,30.15,29.95,6,2,17,0.00
2013-3-13,55,51,42,46,43,39,92,75,66,30.06,29.96,12,3,13,0.01
2013-3-14,60,50,39,48,42,38,97,78,59,30.00,29.85,5,1,14,0.00
2013-3-15,57,48,34,45,40,33,96,73,53,30.03,29.89,13,2,13,0.00
2013-3-16,52,41,35,43,38,32,97,88,61,29.93,29.59,17,2,17,0.07
2013-3-17,46,37,28,31,24,18,88,60,36,29.95,29.61,20,3,20,0.00
2013-3-18,47,33,25,31,24,19,92,72,34,30.11,29.89,24,3,24,0.01
2013-3-19,50,35,20,33,25,18,94,70,40,30.20,29.74,10,1,10,0.00
2013-3-20,53,43,33,49,39,30,97,88,64,29.74,29.38,24,3,24,0.42
2013-3-21,44,34,26,30,25,22,92,73,46,29.95,29.69,19,4,19,0.00
2013-3-22,34,24,20,25,21,18,95,89,65,30.20,29.94,5,0,5,0.00
2013-3-23,42,28,17,29,22,15,95,78,42,30.29,30.20,14,1,14,0.01
2013-3-24,45,31,21,29,20,12,96,69,27,30.30,30.13,11,1,11,0.00
2013-3-25,25,23,22,21,20,18,88,86,82,30.14,30.10,4,0,4,0.00
2013-3-26,56,39,28,37,29,24,90,70,42,29.93,29.85,3,1,10,0.00
2013-3-27,54,43,33,44,37,31,96,80,64,29.89,29.85,2,0,8,0.00
2013-3-28,59,43,32,44,39,32,98,86,52,29.98,29.89,4,0,12,0.00
2013-3-29,61,44,30,43,35,29,98,75,35,30.12,29.98,16,1,16,0.00
2013-3-30,64,45,29,46,35,28,98,74,35,30.18,30.02,9,1,9,0.00
2013-3-31,67,47,30,43,36,30,98,71,28,30.02,29.81,8,1,8,0.00